createdAt,value
2022-08-23T00:00:41.700Z,83.71
2022-08-23T00:01:40.668Z,83.55
2022-08-23T00:02:40.685Z,83.31
2022-08-23T00:03:40.660Z,83.31
2022-08-23T00:04:40.628Z,83.71
2022-08-23T00:05:41.639Z,83.21
2022-08-23T00:06:40.609Z,83.61
2022-08-23T00:07:40.616Z,83.51
2022-08-23T00:08:40.579Z,83.31
2022-08-23T00:09:41.571Z,84.01
2022-08-23T00:10:40.692Z,84.01
2022-08-23T00:11:40.586Z,84.01
2022-08-23T00:12:40.541Z,84.01
2022-08-23T00:13:48.033Z,83.91
2022-08-23T00:14:41.568Z,83.61
2022-08-23T00:15:40.522Z,83.75
2022-08-23T00:16:40.493Z,83.71
2022-08-23T00:17:40.481Z,83.81
2022-08-23T00:18:40.469Z,83.81
2022-08-23T00:19:40.462Z,84.35
2022-08-23T00:20:40.467Z,84.11
2022-08-23T00:21:40.439Z,84.01
2022-08-23T00:22:40.424Z,84.31
2022-08-23T00:23:40.413Z,84.31
2022-08-23T00:24:41.004Z,84.25
2022-08-23T00:25:40.410Z,84.25
2022-08-23T00:26:40.381Z,84.25
2022-08-23T00:27:40.366Z,84.55
2022-08-23T00:28:40.356Z,84.45
2022-08-23T00:29:40.353Z,84.35
2022-08-23T00:30:40.358Z,84.45
2022-08-23T00:31:40.368Z,84.45
2022-08-23T00:32:40.314Z,84.45
2022-08-23T00:33:40.303Z,84.35
2022-08-23T00:34:40.293Z,84.55
2022-08-23T00:35:40.282Z,84.45
2022-08-23T00:36:40.288Z,84.65
2022-08-23T00:37:40.263Z,84.65
2022-08-23T00:38:40.656Z,84.55
2022-08-23T00:39:40.302Z,84.55
2022-08-23T00:40:40.240Z,84.25
2022-08-23T00:41:40.236Z,84.25
2022-08-23T00:42:40.523Z,84.15
2022-08-23T00:43:40.192Z,84.05
2022-08-23T00:44:40.179Z,84.65
2022-08-23T00:45:40.217Z,84.55
2022-08-23T00:46:40.562Z,84.25
2022-08-23T00:47:40.157Z,84.19
2022-08-23T00:48:40.132Z,84.05
2022-08-23T00:49:40.126Z,84.39
2022-08-23T00:50:40.112Z,84.45
2022-08-23T00:51:52.683Z,84.69
2022-08-23T00:52:41.087Z,84.35
2022-08-23T00:53:40.081Z,84.09
2022-08-23T00:54:40.075Z,84.29
2022-08-23T00:55:40.057Z,84.39
2022-08-23T00:56:40.061Z,84.39
2022-08-23T00:57:40.046Z,84.49
2022-08-23T00:58:40.020Z,84.49
2022-08-23T00:59:40.009Z,84.39
2022-08-23T01:00:39.999Z,84.49
2022-08-23T01:01:40.145Z,84.80
2022-08-23T01:02:39.980Z,84.59
2022-08-23T01:03:40.232Z,84.09
2022-08-23T01:04:39.958Z,84.69
2022-08-23T01:05:39.963Z,84.29
2022-08-23T01:06:39.989Z,84.39
2022-08-23T01:07:39.953Z,84.19
2022-08-23T01:08:39.946Z,84.29
2022-08-23T01:09:39.912Z,84.13
2022-08-23T01:10:39.912Z,84.09
2022-08-23T01:11:39.881Z,84.39
2022-08-23T01:12:39.887Z,84.29
2022-08-23T01:13:39.855Z,84.29
2022-08-23T01:14:39.858Z,84.39
2022-08-23T01:15:39.832Z,84.09
2022-08-23T01:16:39.841Z,84.09
2022-08-23T01:17:39.830Z,84.19
2022-08-23T01:18:39.796Z,84.39
2022-08-23T01:19:39.792Z,84.29
2022-08-23T01:20:40.395Z,83.93
2022-08-23T01:21:41.329Z,84.29
2022-08-23T01:22:39.771Z,83.89
2022-08-23T01:23:39.742Z,83.89
2022-08-23T01:25:06.233Z,83.79
2022-08-23T01:25:40.726Z,84.09
2022-08-23T01:26:39.710Z,83.59
2022-08-23T01:27:39.718Z,83.49
2022-08-23T01:28:39.691Z,83.43
2022-08-23T01:29:39.678Z,84.13
2022-08-23T01:30:39.665Z,84.13
2022-08-23T01:31:39.879Z,84.13
2022-08-23T01:32:39.659Z,84.03
2022-08-23T01:33:39.626Z,83.83
2022-08-23T01:34:44.706Z,84.13
2022-08-23T01:35:41.448Z,84.13
2022-08-23T01:36:39.600Z,83.99
2022-08-23T01:37:39.608Z,83.59
2022-08-23T01:38:39.575Z,83.43
2022-08-23T01:39:39.585Z,83.49
2022-08-23T01:40:39.552Z,83.49
2022-08-23T01:41:39.573Z,83.39
2022-08-23T01:42:39.530Z,83.18
2022-08-23T01:43:39.566Z,83.29
2022-08-23T01:44:39.527Z,83.39
2022-08-23T01:45:39.762Z,83.29
2022-08-23T01:46:39.995Z,82.78
2022-08-23T01:47:39.477Z,82.78
2022-08-23T01:48:39.469Z,82.48
2022-08-23T01:49:39.453Z,83.18
2022-08-23T01:50:39.580Z,82.38
2022-08-23T01:51:39.431Z,82.68
2022-08-23T01:52:39.454Z,82.58
2022-08-23T01:53:40.412Z,82.68
2022-08-23T01:54:39.415Z,82.68
2022-08-23T01:55:39.408Z,82.78
2022-08-23T01:56:39.535Z,81.98
2022-08-23T01:57:39.366Z,82.89
2022-08-23T01:58:39.356Z,82.89
2022-08-23T01:59:39.362Z,82.48
2022-08-23T02:00:39.330Z,82.78
2022-08-23T02:01:39.381Z,82.89
2022-08-23T02:02:39.311Z,82.68
2022-08-23T02:03:39.331Z,83.09
2022-08-23T02:04:39.288Z,83.09
2022-08-23T02:05:39.470Z,82.98
2022-08-23T02:06:39.264Z,82.68
2022-08-23T02:07:39.272Z,83.09
2022-08-23T02:08:39.241Z,83.18
2022-08-23T02:09:39.415Z,82.78
2022-08-23T02:10:39.222Z,82.89
2022-08-23T02:11:39.221Z,83.03
2022-08-23T02:12:39.204Z,83.09
2022-08-23T02:13:39.216Z,82.98
2022-08-23T02:14:40.663Z,83.33
2022-08-23T02:15:39.167Z,82.78
2022-08-23T02:16:39.148Z,83.23
2022-08-23T02:17:39.140Z,82.72
2022-08-23T02:18:39.157Z,83.63
2022-08-23T02:19:39.122Z,83.53
2022-08-23T02:20:39.109Z,83.69
2022-08-23T02:21:39.103Z,83.83
2022-08-23T02:22:39.083Z,84.13
2022-08-23T02:23:39.091Z,84.07
2022-08-23T02:24:39.262Z,83.93
2022-08-23T02:25:39.060Z,83.73
2022-08-23T02:26:39.042Z,83.83
2022-08-23T02:27:39.032Z,83.83
2022-08-23T02:28:40.015Z,83.83
2022-08-23T02:29:39.432Z,83.73
2022-08-23T02:30:38.995Z,83.73
2022-08-23T02:31:38.982Z,83.83
2022-08-23T02:32:38.975Z,83.73
2022-08-23T02:33:38.959Z,83.83
2022-08-23T02:34:38.977Z,83.93
2022-08-23T02:35:38.941Z,83.83
2022-08-23T02:36:38.928Z,84.03
2022-08-23T02:37:38.923Z,83.83
2022-08-23T02:38:38.906Z,83.83
2022-08-23T02:39:39.501Z,83.83
2022-08-23T02:40:38.886Z,84.03
2022-08-23T02:41:38.873Z,83.87
2022-08-23T02:42:38.860Z,83.87
2022-08-23T02:43:41.072Z,83.83
2022-08-23T02:44:38.832Z,83.87
2022-08-23T02:45:38.863Z,83.87
2022-08-23T02:46:38.818Z,83.87
2022-08-23T02:47:38.805Z,83.73
2022-08-23T02:48:38.794Z,83.87
2022-08-23T02:49:38.805Z,83.83
2022-08-23T02:50:38.773Z,83.63
2022-08-23T02:51:38.763Z,83.67
2022-08-23T02:52:38.754Z,83.76
2022-08-23T02:53:38.740Z,83.87
2022-08-23T02:54:38.746Z,84.07
2022-08-23T02:55:38.715Z,83.97
2022-08-23T02:56:38.839Z,83.97
2022-08-23T02:57:38.696Z,84.27
2022-08-23T02:58:38.689Z,84.37
2022-08-23T02:59:38.689Z,84.27
2022-08-23T03:00:38.661Z,84.37
2022-08-23T03:01:38.647Z,84.37
2022-08-23T03:02:38.693Z,84.67
2022-08-23T03:03:38.644Z,84.47
2022-08-23T03:04:38.615Z,84.47
2022-08-23T03:05:38.602Z,84.47
2022-08-23T03:06:38.593Z,84.37
2022-08-23T03:07:38.582Z,84.57
2022-08-23T03:08:38.586Z,84.57
2022-08-23T03:09:38.557Z,84.47
2022-08-23T03:10:38.563Z,84.17
2022-08-23T03:11:38.538Z,84.57
2022-08-23T03:12:38.531Z,84.57
2022-08-23T03:13:38.552Z,84.17
2022-08-23T03:14:38.499Z,84.27
2022-08-23T03:15:38.491Z,84.47
2022-08-23T03:16:38.477Z,84.43
2022-08-23T03:17:38.692Z,84.67
2022-08-23T03:18:38.458Z,84.47
2022-08-23T03:19:38.478Z,84.17
2022-08-23T03:20:38.435Z,84.57
2022-08-23T03:21:38.422Z,84.67
2022-08-23T03:22:38.410Z,84.57
2022-08-23T03:23:38.396Z,84.77
2022-08-23T03:24:38.411Z,84.57
2022-08-23T03:25:38.386Z,84.67
2022-08-23T03:26:38.362Z,84.67
2022-08-23T03:27:44.604Z,84.88
2022-08-23T03:28:39.340Z,84.67
2022-08-23T03:29:38.375Z,84.97
2022-08-23T03:30:38.454Z,85.08
2022-08-23T03:31:38.306Z,84.77
2022-08-23T03:32:38.303Z,84.67
2022-08-23T03:33:46.013Z,84.57
2022-08-23T03:34:38.273Z,84.88
2022-08-23T03:35:38.274Z,85.08
2022-08-23T03:36:38.557Z,84.97
2022-08-23T03:37:38.237Z,84.77
2022-08-23T03:38:38.223Z,85.08
2022-08-23T03:39:38.214Z,84.97
2022-08-23T03:40:38.214Z,84.97
2022-08-23T03:41:38.197Z,85.88
2022-08-23T03:42:38.185Z,85.22
2022-08-23T03:43:38.172Z,85.28
2022-08-23T03:44:38.164Z,85.78
2022-08-23T03:45:38.184Z,85.68
2022-08-23T03:46:38.129Z,85.68
2022-08-23T03:47:38.415Z,85.28
2022-08-23T03:48:38.114Z,86.18
2022-08-23T03:49:38.098Z,86.12
2022-08-23T03:50:38.107Z,86.08
2022-08-23T03:51:38.166Z,85.98
2022-08-23T03:52:38.065Z,86.08
2022-08-23T03:53:38.468Z,86.08
2022-08-23T03:54:38.041Z,86.18
2022-08-23T03:55:38.481Z,85.98
2022-08-23T03:56:38.021Z,86.18
2022-08-23T03:57:38.008Z,86.38
2022-08-23T03:58:38.003Z,86.28
2022-08-23T03:59:37.997Z,86.08
2022-08-23T04:00:37.974Z,86.08
2022-08-23T04:01:38.028Z,86.18
2022-08-23T04:02:37.947Z,86.28
2022-08-23T04:03:37.937Z,86.18
2022-08-23T04:04:38.065Z,86.38
2022-08-23T04:05:37.931Z,86.28
2022-08-23T04:06:37.917Z,85.98
2022-08-23T04:07:37.892Z,86.28
2022-08-23T04:08:37.880Z,86.38
2022-08-23T04:09:37.868Z,86.28
2022-08-23T04:10:38.024Z,86.28
2022-08-23T04:11:37.845Z,86.38
2022-08-23T04:12:37.838Z,86.38
2022-08-23T04:13:37.822Z,86.18
2022-08-23T04:14:37.809Z,86.18
2022-08-23T04:15:37.827Z,86.38
2022-08-23T04:16:37.794Z,86.38
2022-08-23T04:17:37.773Z,86.44
2022-08-23T04:18:37.766Z,86.38
2022-08-23T04:19:37.780Z,86.38
2022-08-23T04:20:37.746Z,86.24
2022-08-23T04:21:37.731Z,86.04
2022-08-23T04:22:37.718Z,85.94
2022-08-23T04:23:37.930Z,86.04
2022-08-23T04:24:37.699Z,86.04
2022-08-23T04:25:37.705Z,86.24
2022-08-23T04:26:37.677Z,86.24
2022-08-23T04:27:37.712Z,85.64
2022-08-23T04:28:37.656Z,85.64
2022-08-23T04:29:37.650Z,85.53
2022-08-23T04:30:37.657Z,86.04
2022-08-23T04:31:37.638Z,86.24
2022-08-23T04:32:37.608Z,86.04
2022-08-23T04:33:40.362Z,86.04
2022-08-23T04:34:37.590Z,86.14
2022-08-23T04:35:37.580Z,86.24
2022-08-23T04:36:37.587Z,86.24
2022-08-23T04:37:37.549Z,86.65
2022-08-23T04:38:37.566Z,86.24
2022-08-23T04:39:37.530Z,86.38
2022-08-23T04:40:38.538Z,86.54
2022-08-23T04:41:37.527Z,86.28
2022-08-23T04:42:37.501Z,86.74
2022-08-23T04:43:37.488Z,86.88
2022-08-23T04:44:37.568Z,86.54
2022-08-23T04:45:37.463Z,86.44
2022-08-23T04:46:37.492Z,86.34
2022-08-23T04:47:37.476Z,86.74
2022-08-23T04:48:37.431Z,86.54
2022-08-23T04:49:37.414Z,86.65
2022-08-23T04:50:37.412Z,86.24
2022-08-23T04:51:37.409Z,86.34
2022-08-23T04:52:37.382Z,86.34
2022-08-23T04:53:37.376Z,86.34
2022-08-23T04:54:37.378Z,86.24
2022-08-23T04:55:37.448Z,86.34
2022-08-23T04:56:37.336Z,86.24
2022-08-23T04:57:37.322Z,86.34
2022-08-23T04:58:37.334Z,86.24
2022-08-23T04:59:37.318Z,86.14
2022-08-23T05:00:37.377Z,86.44
2022-08-23T05:01:37.488Z,86.14
2022-08-23T05:02:37.291Z,85.94
2022-08-23T05:03:37.258Z,86.14
2022-08-23T05:04:37.245Z,85.53
2022-08-23T05:05:37.241Z,85.94
2022-08-23T05:06:37.241Z,85.64
2022-08-23T05:07:42.140Z,85.74
2022-08-23T05:08:38.196Z,85.60
2022-08-23T05:09:37.187Z,85.70
2022-08-23T05:10:37.173Z,85.50
2022-08-23T05:11:37.161Z,84.99
2022-08-23T05:12:37.401Z,85.10
2022-08-23T05:13:37.183Z,85.19
2022-08-23T05:14:37.129Z,85.10
2022-08-23T05:15:37.119Z,84.99
2022-08-23T05:16:37.108Z,84.89
2022-08-23T05:17:37.139Z,84.55
2022-08-23T05:18:37.568Z,84.55
2022-08-23T05:19:37.514Z,84.05
2022-08-23T05:20:38.059Z,84.05
2022-08-23T05:21:37.053Z,83.85
2022-08-23T05:22:37.059Z,83.75
2022-08-23T05:23:37.050Z,83.75
2022-08-23T05:24:37.021Z,83.65
2022-08-23T05:25:37.003Z,83.81
2022-08-23T05:26:36.993Z,83.71
2022-08-23T05:27:37.000Z,83.95
2022-08-23T05:28:36.977Z,84.05
2022-08-23T05:29:37.009Z,84.25
2022-08-23T05:30:36.964Z,84.15
2022-08-23T05:31:36.960Z,84.35
2022-08-23T05:32:36.926Z,84.45
2022-08-23T05:33:36.913Z,84.89
2022-08-23T05:34:36.907Z,84.69
2022-08-23T05:35:37.049Z,84.99
2022-08-23T05:36:36.908Z,84.99
2022-08-23T05:37:36.891Z,85.60
2022-08-23T05:38:36.862Z,85.60
2022-08-23T05:39:37.400Z,85.39
2022-08-23T05:40:36.833Z,85.64
2022-08-23T05:41:37.731Z,85.19
2022-08-23T05:42:36.846Z,85.30
2022-08-23T05:43:36.823Z,85.39
2022-08-23T05:44:36.939Z,85.70
2022-08-23T05:45:36.780Z,85.60
2022-08-23T05:46:36.770Z,85.80
2022-08-23T05:47:36.755Z,85.50
2022-08-23T05:48:36.769Z,85.39
2022-08-23T05:49:36.733Z,85.60
2022-08-23T05:50:36.726Z,85.50
2022-08-23T05:51:36.735Z,85.30
2022-08-23T05:52:37.105Z,85.80
2022-08-23T05:53:36.688Z,85.86
2022-08-23T05:54:36.685Z,84.95
2022-08-23T05:55:36.683Z,84.75
2022-08-23T05:56:36.665Z,84.65
2022-08-23T05:57:36.649Z,84.75
2022-08-23T05:58:36.657Z,84.85
2022-08-23T05:59:36.621Z,84.85
2022-08-23T06:00:37.411Z,84.65
2022-08-23T06:01:36.599Z,84.55
2022-08-23T06:02:36.593Z,84.51
2022-08-23T06:03:36.596Z,84.55
2022-08-23T06:04:36.569Z,84.21
2022-08-23T06:05:37.051Z,84.21
2022-08-23T06:06:37.250Z,83.87
2022-08-23T06:07:36.532Z,82.97
2022-08-23T06:08:36.545Z,83.07
2022-08-23T06:09:36.518Z,82.73
2022-08-23T06:10:39.343Z,82.03
2022-08-23T06:11:37.487Z,82.73
2022-08-23T06:12:36.482Z,82.43
2022-08-23T06:13:36.481Z,81.62
2022-08-23T06:14:36.555Z,81.99
2022-08-23T06:15:36.445Z,81.29
2022-08-23T06:16:36.440Z,81.29
2022-08-23T06:17:36.422Z,80.74
2022-08-23T06:18:36.430Z,80.74
2022-08-23T06:19:36.416Z,79.91
2022-08-23T06:20:36.447Z,79.50
2022-08-23T06:21:36.375Z,78.86
2022-08-23T06:22:36.363Z,78.97
2022-08-23T06:23:36.379Z,78.47
2022-08-23T06:24:36.346Z,77.83
2022-08-23T06:25:36.334Z,77.73
2022-08-23T06:26:37.022Z,77.33
2022-08-23T06:27:36.306Z,77.53
2022-08-23T06:28:36.389Z,76.79
2022-08-23T06:29:37.289Z,76.89
2022-08-23T06:30:39.617Z,76.45
2022-08-23T06:31:36.271Z,76.29
2022-08-23T06:32:36.314Z,75.65
2022-08-23T06:33:36.312Z,75.42
2022-08-23T06:34:36.248Z,74.82
2022-08-23T06:35:38.643Z,74.92
2022-08-23T06:36:36.228Z,74.49
2022-08-23T06:37:37.064Z,74.32
2022-08-23T06:38:36.207Z,74.52
2022-08-23T06:39:37.631Z,74.08
2022-08-23T06:40:36.164Z,74.29
2022-08-23T06:41:36.209Z,73.49
2022-08-23T06:42:38.808Z,73.99
2022-08-23T06:43:37.341Z,73.35
2022-08-23T06:44:36.142Z,73.45
2022-08-23T06:45:36.107Z,73.35
2022-08-23T06:46:36.147Z,73.11
2022-08-23T06:47:36.091Z,71.59
2022-08-23T06:48:36.094Z,70.75
2022-08-23T06:49:36.065Z,70.75
2022-08-23T06:50:36.055Z,70.12
2022-08-23T06:51:36.044Z,69.49
2022-08-23T06:52:36.052Z,67.97
2022-08-23T06:53:36.027Z,65.85
2022-08-23T06:54:36.043Z,66.11
2022-08-23T06:55:35.994Z,65.69
2022-08-23T06:56:36.094Z,65.09
2022-08-23T06:57:35.975Z,64.40
2022-08-23T06:58:35.968Z,64.73
2022-08-23T06:59:35.973Z,64.92
2022-08-23T07:00:36.057Z,66.02
2022-08-23T07:01:48.817Z,65.55
2022-08-23T07:02:36.973Z,66.35
2022-08-23T07:03:36.606Z,66.88
2022-08-23T07:04:35.939Z,67.00
2022-08-23T07:05:35.885Z,68.27
2022-08-23T07:06:35.879Z,68.56
2022-08-23T07:07:39.789Z,68.79
2022-08-23T07:08:36.860Z,69.39
2022-08-23T07:09:35.847Z,69.29
2022-08-23T07:10:35.850Z,70.03
2022-08-23T07:11:36.576Z,70.22
2022-08-23T07:12:35.821Z,70.22
2022-08-23T07:13:35.821Z,70.42
2022-08-23T07:14:35.785Z,71.15
2022-08-23T07:15:35.876Z,71.25
2022-08-23T07:16:35.828Z,70.56
2022-08-23T07:17:36.534Z,71.19
2022-08-23T07:18:35.755Z,71.39
2022-08-23T07:19:35.753Z,71.78
2022-08-23T07:20:35.737Z,72.28
2022-08-23T07:21:35.708Z,72.49
2022-08-23T07:22:35.703Z,72.58
2022-08-23T07:23:35.685Z,71.89
2022-08-23T07:24:35.679Z,72.08
2022-08-23T07:25:35.683Z,72.35
2022-08-23T07:26:35.649Z,72.45
2022-08-23T07:27:35.681Z,72.68
2022-08-23T07:28:35.783Z,72.58
2022-08-23T07:29:35.622Z,72.38
2022-08-23T07:30:35.632Z,72.78
2022-08-23T07:31:35.677Z,71.95
2022-08-23T07:32:35.941Z,72.55
2022-08-23T07:33:35.584Z,72.05
2022-08-23T07:34:35.686Z,71.85
2022-08-23T07:35:40.048Z,70.82
2022-08-23T07:36:35.986Z,71.85
2022-08-23T07:37:35.531Z,72.11
2022-08-23T07:38:35.519Z,71.42
2022-08-23T07:39:35.519Z,70.72
2022-08-23T07:40:39.048Z,71.48
2022-08-23T07:41:36.494Z,70.49
2022-08-23T07:42:35.480Z,70.39
2022-08-23T07:43:35.467Z,70.15
2022-08-23T07:44:35.455Z,70.06
2022-08-23T07:45:35.461Z,69.96
2022-08-23T07:46:35.490Z,70.06
2022-08-23T07:47:35.419Z,69.56
2022-08-23T07:48:53.072Z,69.66
2022-08-23T07:49:36.441Z,69.69
2022-08-23T07:50:35.388Z,69.85
2022-08-23T07:51:35.376Z,69.89
2022-08-23T07:52:35.376Z,70.09
2022-08-23T07:53:37.291Z,70.29
2022-08-23T07:54:35.357Z,70.29
2022-08-23T07:55:35.348Z,70.29
2022-08-23T07:56:35.319Z,70.68
2022-08-23T07:57:35.324Z,70.98
2022-08-23T07:58:35.308Z,71.42
2022-08-23T07:59:35.306Z,72.78
2022-08-23T08:00:36.093Z,72.58
2022-08-23T08:01:35.382Z,72.78
2022-08-23T08:02:35.403Z,72.55
2022-08-23T08:03:35.260Z,71.75
2022-08-23T08:04:35.244Z,72.35
2022-08-23T08:05:35.223Z,71.75
2022-08-23T08:06:35.502Z,71.92
2022-08-23T08:07:35.581Z,71.22
2022-08-23T08:08:35.194Z,70.68
2022-08-23T08:09:35.177Z,70.59
2022-08-23T08:10:35.165Z,70.68
2022-08-23T08:11:35.799Z,70.39
2022-08-23T08:12:35.146Z,70.39
2022-08-23T08:13:35.142Z,70.09
2022-08-23T08:14:37.160Z,70.09
2022-08-23T08:15:35.114Z,70.06
2022-08-23T08:16:35.156Z,69.46
2022-08-23T08:17:35.541Z,69.32
2022-08-23T08:18:35.082Z,68.40
2022-08-23T08:19:35.089Z,68.27
2022-08-23T08:20:35.057Z,67.14
2022-08-23T08:21:35.095Z,66.81
2022-08-23T08:22:35.047Z,66.78
2022-08-23T08:23:35.042Z,66.25
2022-08-23T08:24:35.039Z,65.75
2022-08-23T08:25:34.999Z,64.83
2022-08-23T08:26:34.986Z,65.03
2022-08-23T08:27:35.168Z,64.53
2022-08-23T08:28:34.990Z,64.73
2022-08-23T08:29:34.966Z,63.94
2022-08-23T08:30:34.944Z,64.31
2022-08-23T08:31:35.039Z,64.53
2022-08-23T08:32:34.925Z,64.40
2022-08-23T08:33:34.928Z,64.20
2022-08-23T08:34:34.908Z,64.34
2022-08-23T08:35:34.892Z,64.53
2022-08-23T08:36:34.880Z,64.63
2022-08-23T08:37:34.878Z,64.53
2022-08-23T08:38:36.771Z,64.01
2022-08-23T08:39:34.848Z,64.31
2022-08-23T08:40:35.922Z,64.50
2022-08-23T08:41:34.845Z,64.60
2022-08-23T08:42:34.813Z,64.01
2022-08-23T08:43:34.823Z,63.98
2022-08-23T08:44:34.790Z,64.34
2022-08-23T08:45:34.807Z,64.83
2022-08-23T08:46:34.819Z,64.73
2022-08-23T08:47:34.782Z,64.40
2022-08-23T08:48:34.752Z,63.48
2022-08-23T08:49:34.738Z,62.39
2022-08-23T08:50:34.730Z,62.19
2022-08-23T08:51:35.208Z,62.56
2022-08-23T08:52:34.730Z,62.16
2022-08-23T08:53:34.691Z,62.10
2022-08-23T08:54:34.684Z,62.69
2022-08-23T08:55:34.751Z,62.12
2022-08-23T08:56:34.681Z,63.31
2022-08-23T08:57:35.573Z,64.14
2022-08-23T08:58:34.640Z,64.04
2022-08-23T08:59:34.637Z,63.31
2022-08-23T09:00:34.617Z,64.04
2022-08-23T09:01:34.689Z,64.53
2022-08-23T09:02:34.861Z,65.06
2022-08-23T09:03:34.678Z,64.96
2022-08-23T09:04:34.577Z,64.93
2022-08-23T09:05:34.590Z,64.37
2022-08-23T09:06:34.549Z,64.27
2022-08-23T09:07:34.543Z,64.67
2022-08-23T09:08:35.253Z,64.47
2022-08-23T09:09:34.519Z,64.73
2022-08-23T09:10:34.529Z,64.95
2022-08-23T09:11:34.497Z,65.95
2022-08-23T09:12:34.577Z,65.55
2022-08-23T09:13:34.474Z,65.95
2022-08-23T09:14:34.473Z,66.78
2022-08-23T09:15:34.572Z,66.58
2022-08-23T09:16:34.456Z,66.55
2022-08-23T09:17:34.438Z,66.64
2022-08-23T09:18:34.421Z,66.15
2022-08-23T09:19:34.412Z,64.36
2022-08-23T09:20:34.883Z,64.53
2022-08-23T09:21:34.387Z,64.62
2022-08-23T09:22:34.374Z,64.83
2022-08-23T09:23:34.375Z,64.23
2022-08-23T09:24:34.362Z,64.26
2022-08-23T09:25:35.133Z,65.06
2022-08-23T09:26:34.352Z,64.66
2022-08-23T09:27:34.324Z,65.06
2022-08-23T09:28:34.310Z,64.46
2022-08-23T09:29:34.310Z,64.86
2022-08-23T09:30:34.288Z,64.46
2022-08-23T09:31:36.031Z,64.83
2022-08-23T09:32:34.267Z,64.43
2022-08-23T09:33:34.259Z,64.23
2022-08-23T09:34:43.656Z,64.23
2022-08-23T09:35:34.237Z,64.23
2022-08-23T09:36:34.240Z,63.96
2022-08-23T09:37:34.218Z,64.46
2022-08-23T09:38:34.204Z,64.66
2022-08-23T09:39:34.186Z,64.16
2022-08-23T09:40:34.206Z,64.86
2022-08-23T09:41:34.175Z,65.19
2022-08-23T09:42:34.269Z,64.89
2022-08-23T09:43:34.184Z,64.98
2022-08-23T09:44:34.138Z,65.28
2022-08-23T09:45:35.676Z,65.68
2022-08-23T09:46:34.195Z,65.98
2022-08-23T09:47:34.106Z,66.08
2022-08-23T09:48:34.097Z,65.88
2022-08-23T09:49:34.085Z,66.08
2022-08-23T09:50:34.071Z,66.78
2022-08-23T09:51:35.146Z,66.28
2022-08-23T09:52:34.046Z,65.48
2022-08-23T09:53:34.047Z,66.28
2022-08-23T09:54:35.046Z,66.25
2022-08-23T09:55:34.022Z,65.85
2022-08-23T09:56:34.004Z,65.16
2022-08-23T09:57:33.996Z,64.92
2022-08-23T09:58:34.004Z,64.73
2022-08-23T09:59:33.983Z,65.02
2022-08-23T10:00:33.967Z,65.06
2022-08-23T10:01:38.731Z,65.16
2022-08-23T10:02:34.975Z,64.86
2022-08-23T10:03:33.929Z,65.75
2022-08-23T10:04:33.961Z,65.22
2022-08-23T10:05:33.947Z,64.92
2022-08-23T10:06:33.897Z,64.86
2022-08-23T10:07:33.907Z,64.95
2022-08-23T10:08:33.878Z,64.76
2022-08-23T10:09:33.868Z,65.25
2022-08-23T10:10:33.872Z,64.92
2022-08-23T10:11:33.862Z,64.83
2022-08-23T10:12:33.833Z,64.92
2022-08-23T10:13:33.820Z,64.70
2022-08-23T10:14:33.993Z,64.30
2022-08-23T10:15:36.189Z,63.70
2022-08-23T10:16:33.968Z,64.23
2022-08-23T10:17:33.778Z,63.51
2022-08-23T10:18:33.765Z,63.70
2022-08-23T10:19:33.758Z,63.04
2022-08-23T10:20:33.836Z,63.83
2022-08-23T10:21:33.772Z,63.93
2022-08-23T10:22:33.730Z,64.23
2022-08-23T10:23:33.711Z,64.62
2022-08-23T10:24:33.704Z,63.64
2022-08-23T10:25:33.697Z,63.31
2022-08-23T10:26:33.694Z,63.83
2022-08-23T10:27:33.668Z,63.80
2022-08-23T10:28:36.895Z,63.40
2022-08-23T10:29:34.652Z,62.58
2022-08-23T10:30:33.636Z,62.58
2022-08-23T10:31:33.692Z,62.05
2022-08-23T10:32:33.659Z,62.05
2022-08-23T10:33:33.658Z,62.26
2022-08-23T10:34:33.611Z,61.46
2022-08-23T10:35:33.630Z,61.66
2022-08-23T10:36:33.623Z,61.26
2022-08-23T10:37:33.624Z,61.13
2022-08-23T10:38:33.546Z,60.71
2022-08-23T10:39:33.723Z,60.21
2022-08-23T10:40:33.715Z,60.54
2022-08-23T10:41:33.539Z,60.34
2022-08-23T10:42:33.526Z,60.54
2022-08-23T10:43:33.494Z,60.74
2022-08-23T10:44:33.497Z,60.34
2022-08-23T10:45:33.475Z,60.64
2022-08-23T10:46:33.532Z,60.74
2022-08-23T10:47:33.464Z,60.41
2022-08-23T10:48:33.475Z,60.41
2022-08-23T10:49:33.430Z,60.51
2022-08-23T10:50:33.412Z,59.52
2022-08-23T10:51:33.414Z,60.31
2022-08-23T10:52:33.730Z,59.72
2022-08-23T10:53:33.382Z,59.09
2022-08-23T10:54:33.391Z,59.19
2022-08-23T10:55:33.372Z,59.30
2022-08-23T10:56:33.394Z,57.98
2022-08-23T10:57:33.375Z,58.67
2022-08-23T10:58:33.363Z,58.11
2022-08-23T10:59:33.421Z,57.90
2022-08-23T11:00:33.338Z,58.53
2022-08-23T11:01:33.430Z,59.32
2022-08-23T11:02:33.396Z,59.12
2022-08-23T11:03:33.338Z,58.63
2022-08-23T11:04:33.377Z,59.42
2022-08-23T11:05:33.333Z,58.86
2022-08-23T11:06:33.374Z,59.12
2022-08-23T11:07:33.379Z,59.32
2022-08-23T11:08:33.230Z,59.03
2022-08-23T11:09:33.578Z,58.70
2022-08-23T11:10:33.200Z,58.92
2022-08-23T11:11:33.190Z,59.09
2022-08-23T11:12:33.186Z,57.48
2022-08-23T11:13:33.180Z,57.26
2022-08-23T11:14:33.171Z,57.65
2022-08-23T11:15:33.190Z,56.46
2022-08-23T11:16:33.126Z,56.69
2022-08-23T11:17:33.121Z,57.68
2022-08-23T11:18:33.422Z,57.41
2022-08-23T11:19:33.116Z,57.51
2022-08-23T11:20:33.102Z,57.74
2022-08-23T11:21:33.074Z,58.13
2022-08-23T11:22:33.067Z,57.74
2022-08-23T11:23:33.070Z,57.74
2022-08-23T11:24:33.441Z,58.03
2022-08-23T11:25:33.030Z,57.61
2022-08-23T11:26:33.016Z,57.29
2022-08-23T11:27:33.064Z,57.09
2022-08-23T11:28:32.999Z,55.68
2022-08-23T11:29:33.011Z,56.67
2022-08-23T11:30:33.074Z,56.46
2022-08-23T11:31:32.967Z,56.67
2022-08-23T11:32:32.954Z,57.29
2022-08-23T11:33:32.947Z,57.48
2022-08-23T11:34:32.928Z,57.48
2022-08-23T11:35:32.946Z,57.98
2022-08-23T11:36:32.920Z,57.81
2022-08-23T11:37:32.903Z,58.03
2022-08-23T11:38:32.884Z,58.23
2022-08-23T11:39:32.945Z,58.23
2022-08-23T11:40:32.908Z,58.16
2022-08-23T11:41:33.068Z,57.57
2022-08-23T11:42:32.846Z,58.09
2022-08-23T11:43:32.839Z,59.80
2022-08-23T11:44:32.820Z,60.85
2022-08-23T11:45:33.247Z,61.15
2022-08-23T11:46:32.864Z,61.02
2022-08-23T11:47:32.807Z,60.50
2022-08-23T11:48:32.794Z,59.75
2022-08-23T11:49:32.769Z,58.92
2022-08-23T11:50:32.758Z,58.33
2022-08-23T11:51:32.744Z,58.13
2022-08-23T11:52:32.740Z,58.23
2022-08-23T11:53:32.766Z,58.13
2022-08-23T11:54:32.715Z,57.51
2022-08-23T11:55:32.729Z,56.89
2022-08-23T11:56:32.689Z,55.97
2022-08-23T11:57:32.689Z,55.45
2022-08-23T11:58:32.911Z,55.52
2022-08-23T11:59:32.664Z,54.90
2022-08-23T12:00:32.647Z,53.50
2022-08-23T12:01:32.635Z,53.57
2022-08-23T12:02:32.969Z,53.77
2022-08-23T12:03:32.736Z,53.25
2022-08-23T12:04:32.599Z,51.23
2022-08-23T12:05:32.746Z,50.78
2022-08-23T12:06:32.579Z,50.07
2022-08-23T12:07:32.574Z,49.63
2022-08-23T12:08:32.563Z,48.82
2022-08-23T12:09:32.576Z,48.62
2022-08-23T12:10:32.538Z,47.86
2022-08-23T12:11:32.551Z,49.01
2022-08-23T12:12:37.634Z,50.83
2022-08-23T12:13:34.232Z,50.95
2022-08-23T12:14:32.528Z,51.87
2022-08-23T12:15:32.510Z,52.39
2022-08-23T12:16:32.479Z,51.69
2022-08-23T12:17:34.016Z,53.67
2022-08-23T12:18:32.493Z,53.94
2022-08-23T12:19:35.810Z,52.61
2022-08-23T12:20:33.460Z,51.89
2022-08-23T12:21:32.432Z,51.42
2022-08-23T12:22:32.431Z,51.79
2022-08-23T12:23:32.409Z,51.37
2022-08-23T12:24:32.426Z,51.28
2022-08-23T12:25:32.393Z,51.92
2022-08-23T12:26:32.377Z,51.72
2022-08-23T12:27:32.364Z,51.69
2022-08-23T12:28:32.364Z,51.18
2022-08-23T12:29:32.365Z,50.63
2022-08-23T12:30:32.361Z,50.93
2022-08-23T12:31:32.465Z,49.85
2022-08-23T12:32:32.314Z,49.82
2022-08-23T12:33:32.307Z,49.33
2022-08-23T12:34:32.778Z,49.13
2022-08-23T12:35:32.281Z,50.21
2022-08-23T12:36:32.271Z,50.04
2022-08-23T12:37:32.265Z,50.95
2022-08-23T12:38:32.253Z,50.88
2022-08-23T12:39:32.239Z,51.35
2022-08-23T12:40:32.265Z,50.95
2022-08-23T12:41:32.217Z,50.56
2022-08-23T12:42:32.207Z,49.01
2022-08-23T12:43:32.197Z,48.42
2022-08-23T12:44:34.102Z,47.14
2022-08-23T12:45:32.178Z,47.34
2022-08-23T12:46:32.250Z,47.12
2022-08-23T12:47:32.155Z,47.49
2022-08-23T12:48:32.146Z,46.58
2022-08-23T12:49:32.387Z,47.00
2022-08-23T12:50:33.133Z,47.02
2022-08-23T12:51:32.116Z,46.82
2022-08-23T12:52:32.110Z,46.65